createdAt,value
2022-11-12T00:02:21.711Z,15.43
2022-11-12T00:04:49.205Z,15.15
2022-11-12T00:07:16.790Z,16.48
2022-11-12T00:09:44.378Z,15.82
2022-11-12T00:12:12.640Z,15.20
2022-11-12T00:14:41.086Z,15.40
2022-11-12T00:17:08.655Z,14.20
2022-11-12T00:19:37.498Z,13.63
2022-11-12T00:22:04.981Z,14.40
2022-11-12T00:24:32.472Z,13.32
2022-11-12T00:27:02.964Z,13.57
2022-11-12T00:29:30.455Z,14.73
2022-11-12T00:31:57.977Z,16.50
2022-11-12T00:34:25.487Z,15.70
2022-11-12T00:36:54.497Z,16.50
2022-11-12T00:39:22.312Z,15.38
2022-11-12T00:41:50.179Z,14.57
2022-11-12T00:44:17.709Z,14.65
2022-11-12T00:46:45.509Z,15.85
2022-11-12T00:49:13.059Z,17.42
2022-11-12T00:51:40.575Z,15.38
2022-11-12T00:54:09.407Z,16.00
2022-11-12T00:56:37.300Z,15.30
2022-11-12T00:59:05.037Z,14.88
2022-11-12T01:01:32.575Z,14.60
2022-11-12T01:04:01.001Z,13.88
2022-11-12T01:06:28.545Z,15.25
2022-11-12T01:08:56.483Z,14.55
2022-11-12T01:11:25.897Z,14.52
2022-11-12T01:13:57.001Z,14.50
2022-11-12T01:16:26.238Z,13.00
2022-11-12T01:18:54.992Z,13.95
2022-11-12T01:21:22.910Z,13.65
2022-11-12T01:23:51.485Z,14.25
2022-11-12T01:26:20.307Z,15.15
2022-11-12T01:28:49.447Z,14.38
2022-11-12T01:31:18.089Z,14.13
2022-11-12T01:33:48.112Z,12.27
2022-11-12T01:36:16.242Z,15.02
2022-11-12T01:38:44.550Z,15.80
2022-11-12T01:41:13.115Z,15.20
2022-11-12T01:43:40.590Z,13.85
2022-11-12T01:46:14.445Z,14.65
2022-11-12T01:48:46.489Z,14.65
2022-11-12T01:51:14.482Z,14.38
2022-11-12T01:53:44.397Z,14.20
2022-11-12T01:56:12.058Z,14.77
2022-11-12T01:58:40.175Z,12.65
2022-11-12T02:01:07.850Z,13.57
2022-11-12T02:03:36.808Z,14.52
2022-11-12T02:06:07.280Z,14.63
2022-11-12T02:08:35.087Z,15.57
2022-11-12T02:11:11.376Z,15.35
2022-11-12T02:13:56.773Z,15.98
2022-11-12T02:16:24.581Z,16.02
2022-11-12T02:18:53.457Z,14.25
2022-11-12T02:21:22.475Z,14.13
2022-11-12T02:23:58.063Z,13.77
2022-11-12T02:26:25.703Z,13.73
2022-11-12T02:28:53.232Z,12.95
2022-11-12T02:31:20.846Z,12.95
2022-11-12T02:33:48.343Z,14.15
2022-11-12T02:36:16.251Z,11.68
2022-11-12T02:38:46.323Z,12.32
2022-11-12T02:41:14.349Z,13.18
2022-11-12T02:43:42.198Z,12.60
2022-11-12T02:46:09.778Z,10.85
2022-11-12T02:48:37.251Z,12.73
2022-11-12T02:51:05.465Z,12.00
2022-11-12T02:53:32.978Z,12.57
2022-11-12T02:56:02.123Z,13.02
2022-11-12T02:58:29.854Z,11.98
2022-11-12T03:00:57.783Z,12.88
2022-11-12T03:03:25.471Z,12.82
2022-11-12T03:05:56.843Z,13.07
2022-11-12T03:08:24.787Z,13.75
2022-11-12T03:10:52.867Z,16.13
2022-11-12T03:13:22.115Z,15.18
2022-11-12T03:15:49.676Z,16.63
2022-11-12T03:18:17.381Z,15.20
2022-11-12T03:20:44.934Z,13.90
2022-11-12T03:23:12.430Z,13.57
2022-11-12T03:25:40.152Z,13.07
2022-11-12T03:28:08.439Z,10.98
2022-11-12T03:30:38.237Z,12.27
2022-11-12T03:33:06.376Z,12.30
2022-11-12T03:35:34.704Z,12.20
2022-11-12T03:38:02.485Z,11.35
2022-11-12T03:40:30.388Z,12.60
2022-11-12T03:42:57.996Z,13.23
2022-11-12T03:45:26.466Z,13.57
2022-11-12T03:47:56.169Z,12.52
2022-11-12T03:50:26.220Z,12.45
2022-11-12T03:52:57.429Z,12.40
2022-11-12T03:55:26.330Z,13.18
2022-11-12T03:57:54.141Z,13.65
2022-11-12T04:00:22.544Z,13.82
2022-11-12T04:02:50.286Z,14.10
2022-11-12T04:05:36.866Z,12.90
2022-11-12T04:08:23.828Z,13.23
2022-11-12T04:10:51.652Z,13.90
2022-11-12T04:13:28.697Z,12.95
2022-11-12T04:16:14.409Z,12.25
2022-11-12T04:18:59.183Z,13.07
2022-11-12T04:21:47.231Z,13.40
2022-11-12T04:24:34.727Z,13.93
2022-11-12T04:27:01.347Z,13.95
2022-11-12T04:29:46.176Z,13.98
2022-11-12T04:32:13.704Z,13.35
2022-11-12T04:34:41.249Z,13.05
2022-11-12T04:37:10.203Z,12.55
2022-11-12T04:39:37.706Z,12.35
2022-11-12T04:42:22.841Z,11.57
2022-11-12T04:45:03.655Z,12.98
2022-11-12T04:47:32.109Z,11.70
2022-11-12T04:50:00.167Z,11.60
2022-11-12T04:52:29.674Z,12.77
2022-11-12T04:54:57.300Z,13.50
2022-11-12T04:57:24.990Z,13.77
2022-11-12T04:59:52.485Z,14.55
2022-11-12T05:02:20.025Z,14.20
2022-11-12T05:04:47.490Z,15.05
2022-11-12T05:07:15.510Z,13.90
2022-11-12T05:09:44.730Z,12.70
2022-11-12T05:12:12.531Z,12.98
2022-11-12T05:14:40.049Z,13.50
2022-11-12T05:17:07.551Z,13.50
2022-11-12T05:19:35.301Z,12.48
2022-11-12T05:22:17.412Z,11.70
2022-11-12T05:24:56.212Z,12.60
2022-11-12T05:27:23.716Z,13.15
2022-11-12T05:29:51.193Z,11.70
2022-11-12T05:32:18.733Z,13.95
2022-11-12T05:34:46.266Z,12.50
2022-11-12T05:37:14.551Z,12.60
2022-11-12T05:39:42.058Z,12.88
2022-11-12T05:42:13.707Z,12.85
2022-11-12T05:44:41.814Z,13.20
2022-11-12T05:47:09.329Z,12.55
2022-11-12T05:49:36.870Z,13.60
2022-11-12T05:52:04.445Z,14.02
2022-11-12T05:54:31.904Z,14.32
2022-11-12T05:56:59.474Z,13.05
2022-11-12T05:59:28.342Z,12.98
2022-11-12T06:01:55.881Z,12.60
2022-11-12T06:04:24.548Z,13.70
2022-11-12T06:06:52.078Z,13.35
2022-11-12T06:09:19.743Z,13.35
2022-11-12T06:11:47.228Z,13.20
2022-11-12T06:14:14.718Z,14.10
2022-11-12T06:16:43.866Z,14.52
2022-11-12T06:19:11.373Z,14.23
2022-11-12T06:21:38.870Z,13.98
2022-11-12T06:24:06.905Z,14.85
2022-11-12T06:26:34.382Z,14.82
2022-11-12T06:29:01.850Z,15.15
2022-11-12T06:31:29.417Z,15.55
2022-11-12T06:33:58.229Z,14.23
2022-11-12T06:36:25.700Z,15.10
2022-11-12T06:38:53.204Z,14.38
2022-11-12T06:41:20.784Z,13.77
2022-11-12T06:43:48.272Z,15.60
2022-11-12T06:46:16.761Z,13.65
2022-11-12T06:48:44.298Z,15.18
2022-11-12T06:51:16.660Z,13.95
2022-11-12T06:53:44.261Z,15.05
2022-11-12T06:56:11.802Z,15.55
2022-11-12T06:58:39.629Z,13.93
2022-11-12T07:01:11.587Z,13.68
2022-11-12T07:03:39.977Z,14.35
2022-11-12T07:06:09.173Z,13.60
2022-11-12T07:08:38.320Z,15.15
2022-11-12T07:11:06.589Z,14.18
2022-11-12T07:13:34.843Z,14.05
2022-11-12T07:16:02.722Z,15.35
2022-11-12T07:18:30.474Z,13.60
2022-11-12T07:20:59.125Z,14.52
2022-11-12T07:23:27.397Z,13.32
2022-11-12T07:25:59.994Z,11.98
2022-11-12T07:28:27.939Z,12.25
2022-11-12T07:30:56.237Z,12.43
2022-11-12T07:33:23.755Z,13.25
2022-11-12T07:35:57.473Z,14.13
2022-11-12T07:38:25.267Z,13.10
2022-11-12T07:40:52.928Z,15.35
2022-11-12T07:43:21.757Z,12.43
2022-11-12T07:45:49.386Z,11.23
2022-11-12T07:48:16.852Z,11.95
2022-11-12T07:50:44.373Z,12.35
2022-11-12T07:53:11.899Z,9.60
2022-11-12T07:55:39.451Z,10.82
2022-11-12T07:58:07.493Z,11.65
2022-11-12T08:00:36.359Z,11.85
2022-11-12T08:03:03.860Z,11.98
2022-11-12T08:05:31.344Z,10.75
2022-11-12T08:07:58.975Z,11.38
2022-11-12T08:10:26.832Z,11.35
2022-11-12T08:12:56.788Z,9.77
2022-11-12T08:15:24.563Z,12.40
2022-11-12T08:17:53.529Z,8.52
2022-11-12T08:20:21.050Z,9.75
2022-11-12T08:22:49.565Z,9.23
2022-11-12T08:25:17.293Z,9.63
2022-11-12T08:27:44.807Z,9.73
2022-11-12T08:30:13.033Z,9.45
2022-11-12T08:32:40.500Z,11.23
2022-11-12T08:35:09.820Z,10.88
2022-11-12T08:37:37.354Z,11.20
2022-11-12T08:40:05.018Z,11.85
2022-11-12T08:42:32.523Z,10.15
2022-11-12T08:45:00.081Z,12.55
2022-11-12T08:47:27.644Z,11.88
2022-11-12T08:49:55.157Z,11.63
2022-11-12T08:52:24.012Z,13.45
2022-11-12T08:54:51.500Z,13.68
2022-11-12T08:57:19.043Z,14.07
2022-11-12T08:59:46.579Z,13.63
2022-11-12T09:02:14.191Z,13.70
2022-11-12T09:04:41.768Z,12.38
2022-11-12T09:07:09.691Z,13.38
2022-11-12T09:09:44.639Z,12.63
2022-11-12T09:12:20.667Z,12.18
2022-11-12T09:14:53.474Z,10.55
2022-11-12T09:17:23.703Z,11.00
2022-11-12T09:19:51.697Z,10.38
2022-11-12T09:22:19.378Z,11.02
2022-11-12T09:24:50.754Z,10.98
2022-11-12T09:27:21.122Z,10.85
2022-11-12T09:29:51.539Z,10.40
2022-11-12T09:32:19.118Z,10.07
2022-11-12T09:35:13.036Z,10.65
2022-11-12T09:37:40.530Z,9.27
2022-11-12T09:40:17.555Z,9.88
2022-11-12T09:42:46.139Z,8.95
2022-11-12T09:45:15.024Z,8.43
2022-11-12T09:47:44.350Z,8.43
2022-11-12T09:50:17.486Z,8.70
2022-11-12T09:52:46.742Z,8.50
2022-11-12T09:55:19.817Z,9.73
2022-11-12T09:57:47.330Z,8.32
2022-11-12T10:00:17.495Z,8.75
2022-11-12T10:02:48.839Z,8.45
2022-11-12T10:05:23.366Z,9.30
2022-11-12T10:07:57.415Z,8.20
2022-11-12T10:10:33.623Z,8.02
2022-11-12T10:13:11.092Z,8.00
2022-11-12T10:15:57.901Z,7.10
2022-11-12T10:18:31.055Z,7.65
2022-11-12T10:21:03.124Z,8.23
2022-11-12T10:23:33.815Z,7.88
2022-11-12T10:26:10.216Z,7.97
2022-11-12T10:28:40.683Z,8.02
2022-11-12T10:31:11.912Z,8.63
2022-11-12T10:33:39.442Z,7.15
2022-11-12T10:36:16.411Z,7.50
2022-11-12T10:38:44.815Z,7.70
2022-11-12T10:41:30.928Z,8.07
2022-11-12T10:44:00.621Z,8.32
2022-11-12T10:46:29.270Z,8.45
2022-11-12T10:49:02.039Z,7.60
2022-11-12T10:51:31.296Z,8.27
2022-11-12T10:53:58.862Z,9.20
2022-11-12T10:56:27.835Z,7.78
2022-11-12T10:59:15.242Z,7.78
2022-11-12T11:01:45.717Z,9.07
2022-11-12T11:04:18.431Z,9.02
2022-11-12T11:06:46.218Z,8.40
2022-11-12T11:09:18.125Z,8.05
2022-11-12T11:11:53.579Z,8.27
2022-11-12T11:14:30.020Z,6.72
2022-11-12T11:16:59.682Z,7.90
2022-11-12T11:19:29.776Z,7.78
2022-11-12T11:22:03.295Z,8.07
2022-11-12T11:24:36.778Z,8.45
2022-11-12T11:27:05.812Z,9.13
2022-11-12T11:29:43.076Z,7.90
2022-11-12T11:32:16.053Z,7.90
2022-11-12T11:34:47.389Z,7.22
2022-11-12T11:37:27.427Z,8.48
2022-11-12T11:39:59.554Z,7.68
2022-11-12T11:42:35.563Z,7.57
2022-11-12T11:45:09.204Z,7.50
2022-11-12T11:47:59.899Z,8.23
2022-11-12T11:50:28.493Z,8.35
2022-11-12T11:53:02.469Z,8.10
2022-11-12T11:55:36.771Z,7.82
2022-11-12T12:00:36.239Z,7.72
2022-11-12T12:03:13.568Z,9.52
2022-11-12T12:05:42.845Z,9.38
2022-11-12T12:08:12.211Z,9.10
2022-11-12T12:11:06.910Z,8.85
2022-11-12T12:13:36.986Z,9.02
2022-11-12T12:16:19.700Z,8.80
2022-11-12T12:18:52.729Z,8.32
2022-11-12T12:21:21.034Z,9.85
2022-11-12T12:23:52.150Z,9.75
2022-11-12T12:26:22.875Z,9.73
2022-11-12T12:28:54.663Z,9.45
2022-11-12T12:31:25.362Z,8.73
2022-11-12T12:33:54.369Z,9.65
2022-11-12T12:36:25.753Z,9.25
2022-11-12T12:38:54.934Z,9.55
2022-11-12T12:41:27.734Z,9.13
2022-11-12T12:43:58.665Z,10.13
2022-11-12T12:46:28.698Z,8.98
2022-11-12T12:48:56.329Z,9.27
2022-11-12T12:51:26.634Z,9.48
2022-11-12T12:53:54.139Z,9.70
2022-11-12T12:56:42.334Z,11.85
2022-11-12T12:59:19.210Z,9.35
2022-11-12T13:01:54.848Z,9.98
2022-11-12T13:04:37.257Z,9.55
2022-11-12T13:07:08.654Z,9.38
2022-11-12T13:09:38.370Z,9.68
2022-11-12T13:12:24.366Z,8.98
2022-11-12T13:14:53.153Z,9.50
2022-11-12T13:17:39.432Z,9.15
2022-11-12T13:20:37.143Z,8.35
2022-11-12T13:23:10.145Z,8.45
2022-11-12T13:25:37.855Z,9.27
2022-11-12T13:28:06.632Z,9.43
2022-11-12T13:30:52.598Z,9.77
2022-11-12T13:33:24.777Z,9.20
2022-11-12T13:35:52.310Z,9.27
2022-11-12T13:38:21.270Z,8.75
2022-11-12T13:40:51.846Z,9.57
2022-11-12T13:43:23.108Z,9.18
2022-11-12T13:46:00.377Z,9.77
2022-11-12T13:48:29.855Z,9.13
2022-11-12T13:50:59.644Z,10.65
2022-11-12T13:53:29.250Z,11.75
2022-11-12T13:55:58.985Z,8.45
2022-11-12T13:58:28.463Z,9.77
2022-11-12T14:00:56.874Z,10.50
2022-11-12T14:03:25.530Z,9.45
2022-11-12T14:05:53.212Z,9.30
2022-11-12T14:08:29.494Z,9.93
2022-11-12T14:11:04.197Z,9.32
2022-11-12T14:13:46.565Z,10.73
2022-11-12T14:16:23.833Z,12.02
2022-11-12T14:19:17.338Z,9.57
2022-11-12T14:21:58.634Z,10.73
2022-11-12T14:24:26.305Z,9.40
2022-11-12T14:26:58.171Z,12.82
2022-11-12T14:29:30.007Z,7.88
2022-11-12T14:32:03.087Z,8.80
2022-11-12T14:34:32.369Z,8.45
2022-11-12T14:37:00.345Z,7.95
2022-11-12T14:39:29.920Z,7.80
2022-11-12T14:42:00.285Z,9.05
2022-11-12T14:44:32.011Z,7.20
2022-11-12T14:46:59.826Z,7.75
2022-11-12T14:49:39.368Z,7.10
2022-11-12T14:52:13.118Z,7.07
2022-11-12T14:54:42.620Z,7.90
2022-11-12T14:57:17.416Z,6.15
2022-11-12T14:59:47.596Z,6.20
2022-11-12T15:02:43.930Z,6.38
2022-11-12T15:05:04.511Z,4.68
